createdAt,value
2022-12-09T00:00:51.651Z,1.35
2022-12-09T00:04:00.677Z,1.24
2022-12-09T00:07:07.204Z,1.20
2022-12-09T00:10:13.074Z,1.15
2022-12-09T00:13:19.444Z,1.10
2022-12-09T00:16:27.424Z,1.14
2022-12-09T00:19:36.735Z,1.21
2022-12-09T00:22:42.629Z,1.26
2022-12-09T00:25:48.796Z,1.20
2022-12-09T00:28:56.144Z,1.12
2022-12-09T00:32:02.393Z,1.10
2022-12-09T00:35:11.672Z,1.04
2022-12-09T00:38:17.824Z,1.04
2022-12-09T00:41:23.421Z,1.06
2022-12-09T00:44:30.627Z,1.09
2022-12-09T00:47:36.019Z,1.14
2022-12-09T00:50:45.182Z,1.13
2022-12-09T00:53:54.969Z,1.14
2022-12-09T00:57:01.214Z,1.18
2022-12-09T01:00:08.232Z,1.20
2022-12-09T01:03:17.707Z,1.24
2022-12-09T01:06:28.779Z,1.16
2022-12-09T01:09:37.777Z,1.19
2022-12-09T01:12:43.572Z,1.21
2022-12-09T01:15:49.977Z,1.23
2022-12-09T01:18:57.601Z,1.28
2022-12-09T01:22:07.344Z,1.28
2022-12-09T01:25:13.466Z,1.26
2022-12-09T01:28:20.344Z,1.34
2022-12-09T01:31:28.356Z,1.34
2022-12-09T01:34:34.991Z,1.33
2022-12-09T01:37:43.200Z,1.31
2022-12-09T01:40:49.879Z,1.31
2022-12-09T01:44:22.605Z,1.25
2022-12-09T01:47:28.918Z,1.14
2022-12-09T01:50:39.516Z,1.09
2022-12-09T01:53:53.665Z,0.97
2022-12-09T01:56:59.803Z,0.94
2022-12-09T02:00:08.150Z,1.01
2022-12-09T02:03:22.324Z,1.09
2022-12-09T02:06:28.939Z,1.16
2022-12-09T02:09:37.616Z,1.18
2022-12-09T02:12:59.334Z,1.23
2022-12-09T02:16:16.510Z,1.30
2022-12-09T02:19:50.503Z,1.35
2022-12-09T02:23:09.445Z,1.36
2022-12-09T02:26:33.733Z,1.42
2022-12-09T02:30:07.050Z,1.38
2022-12-09T02:33:42.890Z,1.39
2022-12-09T02:37:09.744Z,1.40
2022-12-09T02:40:27.501Z,1.36
2022-12-09T02:43:49.466Z,1.37
2022-12-09T02:47:00.873Z,1.42
2022-12-09T02:50:15.493Z,1.44
2022-12-09T02:53:29.622Z,1.40
2022-12-09T02:56:39.087Z,1.40
2022-12-09T02:59:45.021Z,1.34
2022-12-09T03:02:59.609Z,1.26
2022-12-09T03:06:13.362Z,1.24
2022-12-09T03:09:31.876Z,1.18
2022-12-09T03:12:43.942Z,1.13
2022-12-09T03:16:00.345Z,1.05
2022-12-09T03:19:18.526Z,0.93
2022-12-09T03:22:33.259Z,0.86
2022-12-09T03:25:51.661Z,0.85
2022-12-09T03:29:01.210Z,0.84
2022-12-09T03:32:07.634Z,0.88
2022-12-09T03:35:23.727Z,0.93
2022-12-09T03:38:37.909Z,0.98
2022-12-09T03:41:53.108Z,0.95
2022-12-09T03:45:06.093Z,0.94
2022-12-09T03:48:14.677Z,0.94
2022-12-09T03:51:31.384Z,0.89
2022-12-09T03:54:47.245Z,0.82
2022-12-09T03:58:03.709Z,0.91
2022-12-09T04:01:10.846Z,0.88
2022-12-09T04:04:16.949Z,0.83
2022-12-09T04:07:23.508Z,0.86
2022-12-09T04:10:29.727Z,0.68
2022-12-09T04:13:39.992Z,1.03
2022-12-09T04:16:46.100Z,1.09
2022-12-09T04:19:52.906Z,1.13
2022-12-09T04:22:59.588Z,1.13
2022-12-09T04:26:06.733Z,1.11
2022-12-09T04:29:16.538Z,1.06
2022-12-09T04:32:23.258Z,1.04
2022-12-09T04:35:28.712Z,1.04
2022-12-09T04:38:34.970Z,1.04
2022-12-09T04:41:40.885Z,1.00
2022-12-09T04:44:50.281Z,1.05
2022-12-09T04:47:55.945Z,1.08
2022-12-09T04:51:03.223Z,1.10
2022-12-09T04:54:08.983Z,1.11
2022-12-09T04:57:15.358Z,1.16
2022-12-09T05:00:25.280Z,1.19
2022-12-09T05:03:32.379Z,1.26
2022-12-09T05:06:38.714Z,1.34
2022-12-09T05:09:45.267Z,1.39
2022-12-09T05:12:50.844Z,1.39
2022-12-09T05:16:04.312Z,1.42
2022-12-09T05:19:11.510Z,1.44
2022-12-09T05:22:20.631Z,1.40
2022-12-09T05:25:27.085Z,1.27
2022-12-09T05:28:34.526Z,1.17
2022-12-09T05:31:43.359Z,1.10
2022-12-09T05:34:49.668Z,1.02
2022-12-09T05:37:55.411Z,0.98
2022-12-09T05:41:02.834Z,0.93
2022-12-09T05:44:08.903Z,0.93
2022-12-09T05:47:18.458Z,0.93
2022-12-09T05:50:24.112Z,0.85
2022-12-09T05:53:31.472Z,0.73
2022-12-09T05:56:37.252Z,0.65
2022-12-09T05:59:44.953Z,0.55
2022-12-09T06:02:53.499Z,0.52
2022-12-09T06:06:00.043Z,0.54
2022-12-09T06:09:08.735Z,0.58
2022-12-09T06:12:15.234Z,0.62
2022-12-09T06:15:22.083Z,0.65
2022-12-09T06:18:33.120Z,0.62
2022-12-09T06:21:41.854Z,0.52
2022-12-09T06:24:51.130Z,0.53
2022-12-09T06:28:00.949Z,0.55
2022-12-09T06:31:07.962Z,0.55
2022-12-09T06:34:16.586Z,0.61
2022-12-09T06:37:23.069Z,0.62
2022-12-09T06:40:28.979Z,0.50
2022-12-09T06:43:35.718Z,0.66
2022-12-09T06:46:42.357Z,0.68
2022-12-09T06:49:52.362Z,0.70
2022-12-09T06:52:57.980Z,0.71
2022-12-09T06:56:11.509Z,0.70
2022-12-09T06:59:17.571Z,0.69
2022-12-09T07:02:24.782Z,0.70
2022-12-09T07:05:35.220Z,0.72
2022-12-09T07:08:41.829Z,0.72
2022-12-09T07:11:49.018Z,0.75
2022-12-09T07:14:55.301Z,0.79
2022-12-09T07:18:01.154Z,0.81
2022-12-09T07:21:18.780Z,0.87
2022-12-09T07:24:24.377Z,0.90
2022-12-09T07:27:30.995Z,0.97
2022-12-09T07:30:36.782Z,1.04
2022-12-09T07:33:43.123Z,1.09
2022-12-09T07:36:52.632Z,1.18
2022-12-09T07:40:01.067Z,1.23
2022-12-09T07:43:07.544Z,1.28
2022-12-09T07:46:13.485Z,1.34
2022-12-09T07:49:20.936Z,1.15
2022-12-09T07:52:29.519Z,1.46
2022-12-09T07:55:38.138Z,1.52
2022-12-09T07:58:45.840Z,1.59
2022-12-09T08:01:52.303Z,1.65
2022-12-09T08:04:57.784Z,1.60
2022-12-09T08:08:07.721Z,1.76
2022-12-09T08:11:17.952Z,1.72
2022-12-09T08:14:24.634Z,1.88
2022-12-09T08:17:31.025Z,1.96
2022-12-09T08:20:37.800Z,2.03
2022-12-09T08:23:47.243Z,2.08
2022-12-09T08:26:54.404Z,2.11
2022-12-09T08:30:07.448Z,2.19
2022-12-09T08:33:14.266Z,2.23
2022-12-09T08:36:23.900Z,2.29
2022-12-09T08:39:33.707Z,2.34
2022-12-09T08:42:39.272Z,2.18
2022-12-09T08:45:46.125Z,2.45
2022-12-09T08:48:52.020Z,2.54
2022-12-09T08:51:59.071Z,2.59
2022-12-09T08:55:08.128Z,2.19
2022-12-09T08:58:14.327Z,2.70
2022-12-09T09:01:23.518Z,2.74
2022-12-09T09:04:30.051Z,2.76
2022-12-09T09:07:36.536Z,2.80
2022-12-09T09:10:46.215Z,2.82
2022-12-09T09:13:54.579Z,2.85
2022-12-09T09:17:01.049Z,2.92
2022-12-09T09:20:08.073Z,3.00
2022-12-09T09:23:15.105Z,3.09
2022-12-09T09:26:28.202Z,3.16
2022-12-09T09:29:35.073Z,3.18
2022-12-09T09:32:41.373Z,3.24
2022-12-09T09:35:48.027Z,3.28
2022-12-09T09:39:02.957Z,3.37
2022-12-09T09:42:40.993Z,3.46
2022-12-09T09:45:49.138Z,3.48
2022-12-09T09:49:06.852Z,3.57
2022-12-09T09:52:22.640Z,3.65
2022-12-09T09:55:46.753Z,3.74
2022-12-09T09:59:19.592Z,3.83
2022-12-09T10:02:53.580Z,3.90
2022-12-09T10:06:07.721Z,4.05
2022-12-09T10:09:24.842Z,4.13
2022-12-09T10:12:50.670Z,4.16
2022-12-09T10:16:21.077Z,4.13
2022-12-09T10:19:36.987Z,4.10
2022-12-09T10:22:49.775Z,4.01
2022-12-09T10:26:01.266Z,4.09
2022-12-09T10:29:22.109Z,4.11
2022-12-09T10:32:35.457Z,4.19
2022-12-09T10:35:42.498Z,4.21
2022-12-09T10:38:49.457Z,4.26
2022-12-09T10:42:16.845Z,4.18
2022-12-09T10:45:23.042Z,4.36
2022-12-09T10:48:37.876Z,4.39
2022-12-09T10:51:54.077Z,4.40
2022-12-09T10:55:01.847Z,4.43
2022-12-09T10:58:20.425Z,4.36
2022-12-09T11:01:27.185Z,4.34
2022-12-09T11:04:40.761Z,4.35
2022-12-09T11:07:52.388Z,4.26
2022-12-09T11:10:59.377Z,4.26
2022-12-09T11:14:06.895Z,4.26
2022-12-09T11:17:21.023Z,4.09
2022-12-09T11:20:34.614Z,4.31
2022-12-09T11:23:40.966Z,4.36
2022-12-09T11:26:47.756Z,4.42
2022-12-09T11:30:13.800Z,4.54
2022-12-09T11:33:31.570Z,4.55
2022-12-09T11:36:48.475Z,4.54
2022-12-09T11:39:55.444Z,4.58
2022-12-09T11:43:04.363Z,4.60
2022-12-09T11:46:25.009Z,4.64
2022-12-09T11:49:36.076Z,4.67
2022-12-09T11:52:46.836Z,4.68
2022-12-09T11:56:04.178Z,4.71
2022-12-09T11:59:19.562Z,4.74
2022-12-09T12:02:38.228Z,4.75
2022-12-09T12:05:47.846Z,4.76
2022-12-09T12:09:15.737Z,4.69
2022-12-09T12:12:38.393Z,4.62
2022-12-09T12:15:55.230Z,4.66
2022-12-09T12:19:16.782Z,4.68
2022-12-09T12:22:59.283Z,4.66
2022-12-09T12:26:22.078Z,4.66
2022-12-09T12:29:45.255Z,4.57
2022-12-09T12:37:10.811Z,4.39
2022-12-09T12:40:39.852Z,4.23
2022-12-09T12:44:32.160Z,4.19
2022-12-09T12:47:53.567Z,3.96
2022-12-09T12:51:23.418Z,3.79
2022-12-09T12:54:49.737Z,3.75
2022-12-09T12:58:10.972Z,3.60
2022-12-09T13:01:33.044Z,3.50
2022-12-09T13:04:51.075Z,3.44
2022-12-09T13:08:08.065Z,3.45
2022-12-09T13:11:23.678Z,3.39
2022-12-09T13:14:46.193Z,3.34
2022-12-09T13:17:58.693Z,3.34
2022-12-09T13:21:08.000Z,3.35
2022-12-09T13:24:34.816Z,3.35
2022-12-09T13:27:54.403Z,3.41
2022-12-09T13:31:03.456Z,3.37
2022-12-09T13:34:40.403Z,3.32
2022-12-09T13:38:03.583Z,3.31
2022-12-09T13:42:04.288Z,3.25
2022-12-09T13:45:21.496Z,3.13
2022-12-09T13:48:53.321Z,3.08
2022-12-09T13:52:01.586Z,2.99
2022-12-09T13:55:20.175Z,2.92
2022-12-09T13:59:28.125Z,2.95
2022-12-09T14:02:43.583Z,2.99
2022-12-09T14:05:52.513Z,2.94
2022-12-09T14:09:09.709Z,2.87
2022-12-09T14:12:18.761Z,2.76
2022-12-09T14:15:41.363Z,2.63
2022-12-09T14:18:47.780Z,2.53
2022-12-09T14:22:37.119Z,2.48
2022-12-09T14:26:11.352Z,2.25
2022-12-09T14:29:56.021Z,2.35
2022-12-09T14:33:01.568Z,2.31
2022-12-09T14:36:26.496Z,2.23
2022-12-09T14:39:46.764Z,2.15
2022-12-09T14:43:12.677Z,2.12
2022-12-09T14:46:30.078Z,2.14
2022-12-09T14:49:44.970Z,2.19
2022-12-09T14:53:00.757Z,2.17
2022-12-09T14:56:08.739Z,2.15
2022-12-09T14:59:25.315Z,2.11
2022-12-09T15:02:33.941Z,2.10
2022-12-09T15:05:39.724Z,2.12
2022-12-09T15:08:45.997Z,2.20
2022-12-09T15:11:51.828Z,2.21
2022-12-09T15:15:08.932Z,2.13
2022-12-09T15:18:26.095Z,2.09
2022-12-09T15:21:35.914Z,2.00
2022-12-09T15:24:50.669Z,1.93
2022-12-09T15:28:04.708Z,1.61
2022-12-09T15:31:21.225Z,1.63
2022-12-09T15:34:30.093Z,1.36
2022-12-09T15:37:36.528Z,1.53
2022-12-09T15:41:07.149Z,1.46
2022-12-09T15:44:21.036Z,1.46
2022-12-09T15:47:40.154Z,1.41
2022-12-09T15:50:57.043Z,1.37
2022-12-09T15:54:09.941Z,1.32
2022-12-09T15:57:22.531Z,1.25
2022-12-09T16:00:29.422Z,1.19
2022-12-09T16:03:40.667Z,1.14
2022-12-09T16:06:50.239Z,1.14
2022-12-09T16:10:14.758Z,1.09
2022-12-09T16:13:23.931Z,0.88
2022-12-09T16:16:42.228Z,0.98
2022-12-09T16:19:51.776Z,1.03
2022-12-09T16:22:57.399Z,0.96
2022-12-09T16:26:07.611Z,0.84
2022-12-09T16:29:28.169Z,0.76
2022-12-09T16:32:44.019Z,0.69
2022-12-09T16:36:03.696Z,0.69
2022-12-09T16:39:38.272Z,0.76
2022-12-09T16:42:43.770Z,0.68
2022-12-09T16:45:53.637Z,0.61
2022-12-09T16:49:04.666Z,0.60
2022-12-09T16:52:20.662Z,0.52
2022-12-09T16:55:29.412Z,0.42
2022-12-09T16:58:39.035Z,0.42
2022-12-09T17:01:46.058Z,0.40
2022-12-09T17:04:54.336Z,0.37
2022-12-09T17:08:02.538Z,0.33
2022-12-09T17:11:09.489Z,0.33
2022-12-09T17:14:14.913Z,0.31
2022-12-09T17:17:21.460Z,0.31
2022-12-09T17:20:27.373Z,0.34
2022-12-09T17:23:40.195Z,0.32
2022-12-09T17:26:46.016Z,0.31
2022-12-09T17:29:52.441Z,0.30
2022-12-09T17:32:58.104Z,0.25
2022-12-09T17:36:04.774Z,0.19
2022-12-09T17:39:15.178Z,0.09
2022-12-09T17:42:21.420Z,0.07
2022-12-09T17:45:27.001Z,0.02
2022-12-09T17:48:37.299Z,-0.02
2022-12-09T17:51:43.785Z,-0.01
2022-12-09T17:54:53.054Z,-0.05
2022-12-09T17:57:58.534Z,-0.07
2022-12-09T18:01:08.499Z,-0.09
2022-12-09T18:04:18.965Z,-0.18
2022-12-09T18:07:25.226Z,-0.18
2022-12-09T18:10:33.449Z,-0.16
2022-12-09T18:13:41.677Z,-0.27
2022-12-09T18:16:49.353Z,-0.15
2022-12-09T18:19:56.986Z,-0.16
2022-12-09T18:23:02.644Z,-0.20
2022-12-09T18:26:17.390Z,-0.24
2022-12-09T18:29:23.140Z,-0.27
2022-12-09T18:32:35.740Z,-0.29
2022-12-09T18:35:43.328Z,-0.36
2022-12-09T18:38:50.646Z,-0.41
2022-12-09T18:41:58.784Z,-0.41
2022-12-09T18:45:05.130Z,-0.41
2022-12-09T18:48:10.597Z,-0.41
2022-12-09T18:51:20.121Z,-0.39
2022-12-09T18:54:28.477Z,-0.42
2022-12-09T18:57:37.512Z,-0.45
2022-12-09T19:00:42.902Z,-0.53
2022-12-09T19:03:50.799Z,-0.57
2022-12-09T19:07:00.485Z,-0.60
2022-12-09T19:10:08.129Z,-0.61
2022-12-09T19:13:16.355Z,-0.62
2022-12-09T19:16:24.498Z,-0.66
2022-12-09T19:19:31.288Z,-0.72
2022-12-09T19:22:37.634Z,-0.75
2022-12-09T19:25:44.329Z,-0.77
2022-12-09T19:28:57.287Z,-0.78
2022-12-09T19:32:23.553Z,-0.77
2022-12-09T19:35:33.857Z,-0.79
2022-12-09T19:38:39.460Z,-0.80
2022-12-09T19:41:47.466Z,-0.91
2022-12-09T19:45:05.482Z,-0.73
2022-12-09T19:48:15.508Z,-0.74
2022-12-09T19:51:22.790Z,-0.71
2022-12-09T19:54:29.881Z,-0.68
2022-12-09T19:57:35.270Z,-0.63
2022-12-09T20:00:44.287Z,-0.62
2022-12-09T20:03:53.973Z,-0.66
2022-12-09T20:07:04.873Z,-0.66
2022-12-09T20:10:13.543Z,-0.78
2022-12-09T20:13:20.046Z,-0.65
2022-12-09T20:16:29.684Z,-0.60
2022-12-09T20:19:36.939Z,-0.61
2022-12-09T20:22:43.044Z,-0.59
2022-12-09T20:25:49.473Z,-0.56
2022-12-09T20:28:58.042Z,-0.54
2022-12-09T20:32:07.662Z,-0.52
2022-12-09T20:35:13.856Z,-0.53
2022-12-09T20:38:20.399Z,-0.48
2022-12-09T20:41:28.387Z,-0.53
2022-12-09T20:44:35.345Z,-0.53
2022-12-09T20:47:43.545Z,-0.49
2022-12-09T20:50:49.818Z,-0.47
2022-12-09T20:53:56.853Z,-0.48
2022-12-09T20:57:03.916Z,-0.57
2022-12-09T21:00:11.185Z,-0.60
2022-12-09T21:03:20.779Z,-0.60
2022-12-09T21:06:30.411Z,-0.61
2022-12-09T21:09:36.811Z,-0.54
2022-12-09T21:12:42.165Z,-0.54
2022-12-09T21:15:48.398Z,-0.51
2022-12-09T21:18:59.815Z,-0.53
2022-12-09T21:22:07.392Z,-0.55
2022-12-09T21:25:13.771Z,-0.59
2022-12-09T21:28:20.210Z,-0.59
2022-12-09T21:31:30.278Z,-0.56
2022-12-09T21:34:39.477Z,-0.57
2022-12-09T21:37:45.355Z,-0.56
2022-12-09T21:40:52.260Z,-0.54
2022-12-09T21:43:58.199Z,-0.54
2022-12-09T21:47:04.431Z,-0.53
2022-12-09T21:50:13.170Z,-0.58
2022-12-09T21:53:20.060Z,-0.61
2022-12-09T21:56:30.408Z,-0.59
2022-12-09T21:59:36.643Z,-0.56
2022-12-09T22:02:43.605Z,-0.56
2022-12-09T22:05:58.121Z,-0.56
2022-12-09T22:09:08.418Z,-0.51
2022-12-09T22:12:14.672Z,-0.48
2022-12-09T22:15:20.480Z,-0.46
2022-12-09T22:18:27.069Z,-0.42
2022-12-09T22:21:36.845Z,-0.44
2022-12-09T22:24:43.360Z,-0.41
2022-12-09T22:27:48.818Z,-0.41
2022-12-09T22:30:55.115Z,-0.37
2022-12-09T22:34:05.796Z,-0.34
2022-12-09T22:37:42.028Z,-0.33
2022-12-09T22:40:40.719Z,-0.43
2022-12-09T22:43:48.419Z,-0.49
2022-12-09T22:46:54.133Z,-0.49
2022-12-09T22:50:00.452Z,-0.52
2022-12-09T22:53:08.829Z,-0.51
2022-12-09T22:56:15.881Z,-0.81
2022-12-09T22:59:21.806Z,-0.52
2022-12-09T23:02:28.168Z,-0.52
2022-12-09T23:05:35.003Z,-0.50
2022-12-09T23:08:47.121Z,-0.52
2022-12-09T23:11:54.360Z,-0.56
2022-12-09T23:15:00.613Z,-0.67
2022-12-09T23:18:06.883Z,-0.56
2022-12-09T23:21:19.869Z,-0.61
2022-12-09T23:24:31.026Z,-0.67
2022-12-09T23:27:37.895Z,-0.70
2022-12-09T23:30:43.307Z,-0.81
2022-12-09T23:33:52.224Z,-0.79
2022-12-09T23:36:57.581Z,-0.81
2022-12-09T23:40:07.524Z,-0.84
2022-12-09T23:43:13.115Z,-0.81
2022-12-09T23:46:23.254Z,-0.88
2022-12-09T23:49:28.694Z,-1.02
2022-12-09T23:52:38.430Z,-1.02
2022-12-09T23:55:47.493Z,-0.98
2022-12-09T23:58:58.655Z,-0.95
